sensor_id;sensor_type;location;lat;lon;timestamp;pressure;altitude;pressure_sealevel;temperature;humidity
46430;BME280;32131;53.454;-6.180;2022-12-10T00:00:37;100901.53;;;-1.40;100.00
46430;BME280;32131;53.454;-6.180;2022-12-10T00:03:05;100899.31;;;-1.35;100.00
46430;BME280;32131;53.454;-6.180;2022-12-10T00:05:34;100903.00;;;-1.30;100.00
46430;BME280;32131;53.454;-6.180;2022-12-10T00:08:03;100903.31;;;-1.25;100.00
46430;BME280;32131;53.454;-6.180;2022-12-10T00:10:34;100898.66;;;-1.19;100.00
46430;BME280;32131;53.454;-6.180;2022-12-10T00:13:02;100888.91;;;-1.13;100.00
46430;BME280;32131;53.454;-6.180;2022-12-10T00:15:34;100893.41;;;-1.09;100.00
46430;BME280;32131;53.454;-6.180;2022-12-10T00:18:02;100899.47;;;-1.07;100.00
46430;BME280;32131;53.454;-6.180;2022-12-10T00:20:30;100902.16;;;-1.04;100.00
46430;BME280;32131;53.454;-6.180;2022-12-10T00:22:58;100908.22;;;-1.02;100.00
46430;BME280;32131;53.454;-6.180;2022-12-10T00:25:26;100899.75;;;-1.02;100.00
46430;BME280;32131;53.454;-6.180;2022-12-10T00:27:55;100904.22;;;-0.98;100.00
46430;BME280;32131;53.454;-6.180;2022-12-10T00:30:24;100904.34;;;-0.97;100.00
46430;BME280;32131;53.454;-6.180;2022-12-10T00:32:53;100902.97;;;-0.91;100.00
46430;BME280;32131;53.454;-6.180;2022-12-10T00:35:22;100896.34;;;-0.89;100.00
46430;BME280;32131;53.454;-6.180;2022-12-10T00:37:50;100892.25;;;-0.87;100.00
46430;BME280;32131;53.454;-6.180;2022-12-10T00:40:18;100902.50;;;-0.86;100.00
46430;BME280;32131;53.454;-6.180;2022-12-10T00:42:46;100889.91;;;-0.84;100.00
46430;BME280;32131;53.454;-6.180;2022-12-10T00:45:18;100881.63;;;-0.82;100.00
46430;BME280;32131;53.454;-6.180;2022-12-10T00:47:47;100881.31;;;-0.86;100.00
46430;BME280;32131;53.454;-6.180;2022-12-10T00:50:16;100882.09;;;-0.87;100.00
46430;BME280;32131;53.454;-6.180;2022-12-10T00:52:44;100882.00;;;-0.89;100.00
46430;BME280;32131;53.454;-6.180;2022-12-10T00:55:17;100883.06;;;-0.85;100.00
46430;BME280;32131;53.454;-6.180;2022-12-10T00:57:45;100880.63;;;-0.84;100.00
46430;BME280;32131;53.454;-6.180;2022-12-10T01:00:13;100886.69;;;-0.82;100.00
46430;BME280;32131;53.454;-6.180;2022-12-10T01:02:43;100891.06;;;-0.79;100.00
46430;BME280;32131;53.454;-6.180;2022-12-10T01:05:11;100894.41;;;-0.80;100.00
46430;BME280;32131;53.454;-6.180;2022-12-10T01:07:39;100897.13;;;-0.77;100.00
46430;BME280;32131;53.454;-6.180;2022-12-10T01:10:08;100890.28;;;-0.78;100.00
46430;BME280;32131;53.454;-6.180;2022-12-10T01:12:38;100893.03;;;-0.75;100.00
46430;BME280;32131;53.454;-6.180;2022-12-10T01:15:07;100893.13;;;-0.73;100.00
46430;BME280;32131;53.454;-6.180;2022-12-10T01:17:35;100904.16;;;-0.73;100.00
46430;BME280;32131;53.454;-6.180;2022-12-10T01:20:05;100902.59;;;-0.71;100.00
46430;BME280;32131;53.454;-6.180;2022-12-10T01:22:34;100892.56;;;-0.69;100.00
46430;BME280;32131;53.454;-6.180;2022-12-10T01:25:02;100901.22;;;-0.66;100.00
46430;BME280;32131;53.454;-6.180;2022-12-10T01:27:31;100899.69;;;-0.64;100.00
46430;BME280;32131;53.454;-6.180;2022-12-10T01:29:59;100902.22;;;-0.64;100.00
46430;BME280;32131;53.454;-6.180;2022-12-10T01:32:27;100894.91;;;-0.59;100.00
46430;BME280;32131;53.454;-6.180;2022-12-10T01:34:55;100885.63;;;-0.58;100.00
46430;BME280;32131;53.454;-6.180;2022-12-10T01:37:24;100894.00;;;-0.59;100.00
46430;BME280;32131;53.454;-6.180;2022-12-10T01:39:52;100888.25;;;-0.57;100.00
46430;BME280;32131;53.454;-6.180;2022-12-10T01:42:21;100881.41;;;-0.58;100.00
46430;BME280;32131;53.454;-6.180;2022-12-10T01:45:06;100884.91;;;-0.56;100.00
46430;BME280;32131;53.454;-6.180;2022-12-10T01:47:35;100880.75;;;-0.55;100.00
46430;BME280;32131;53.454;-6.180;2022-12-10T01:50:04;100871.66;;;-0.52;100.00
46430;BME280;32131;53.454;-6.180;2022-12-10T01:52:35;100877.81;;;-0.48;100.00
46430;BME280;32131;53.454;-6.180;2022-12-10T01:55:06;100866.88;;;-0.47;100.00
46430;BME280;32131;53.454;-6.180;2022-12-10T01:57:35;100874.56;;;-0.45;100.00
46430;BME280;32131;53.454;-6.180;2022-12-10T02:00:05;100867.66;;;-0.48;100.00
46430;BME280;32131;53.454;-6.180;2022-12-10T02:02:40;100873.91;;;-0.56;100.00
46430;BME280;32131;53.454;-6.180;2022-12-10T02:05:22;100873.41;;;-0.64;100.00
46430;BME280;32131;53.454;-6.180;2022-12-10T02:08:00;100870.19;;;-0.61;100.00
46430;BME280;32131;53.454;-6.180;2022-12-10T02:10:41;100862.69;;;-0.60;100.00
46430;BME280;32131;53.454;-6.180;2022-12-10T02:13:18;100865.91;;;-0.63;100.00
46430;BME280;32131;53.454;-6.180;2022-12-10T02:15:50;100871.78;;;-0.64;100.00
46430;BME280;32131;53.454;-6.180;2022-12-10T02:18:23;100870.09;;;-0.63;100.00
46430;BME280;32131;53.454;-6.180;2022-12-10T02:20:56;100870.03;;;-0.65;100.00
46430;BME280;32131;53.454;-6.180;2022-12-10T02:23:27;100878.56;;;-0.63;100.00
46430;BME280;32131;53.454;-6.180;2022-12-10T02:26:01;100871.94;;;-0.60;100.00
46430;BME280;32131;53.454;-6.180;2022-12-10T02:28:37;100872.94;;;-0.58;100.00
46430;BME280;32131;53.454;-6.180;2022-12-10T02:31:08;100879.84;;;-0.56;100.00
46430;BME280;32131;53.454;-6.180;2022-12-10T02:33:42;100875.75;;;-0.54;100.00
46430;BME280;32131;53.454;-6.180;2022-12-10T02:36:13;100874.28;;;-0.50;100.00
46430;BME280;32131;53.454;-6.180;2022-12-10T02:38:44;100872.72;;;-0.48;100.00
46430;BME280;32131;53.454;-6.180;2022-12-10T02:41:15;100875.28;;;-0.48;100.00
46430;BME280;32131;53.454;-6.180;2022-12-10T02:43:45;100877.03;;;-0.47;100.00
46430;BME280;32131;53.454;-6.180;2022-12-10T02:46:16;100874.19;;;-0.52;100.00
46430;BME280;32131;53.454;-6.180;2022-12-10T02:48:45;100869.00;;;-0.53;100.00
46430;BME280;32131;53.454;-6.180;2022-12-10T02:51:15;100863.84;;;-0.55;100.00
46430;BME280;32131;53.454;-6.180;2022-12-10T02:53:44;100864.53;;;-0.57;100.00
46430;BME280;32131;53.454;-6.180;2022-12-10T02:56:18;100866.88;;;-0.60;100.00
46430;BME280;32131;53.454;-6.180;2022-12-10T02:58:56;100866.50;;;-0.67;100.00
46430;BME280;32131;53.454;-6.180;2022-12-10T03:01:35;100874.03;;;-0.68;100.00
46430;BME280;32131;53.454;-6.180;2022-12-10T03:04:12;100869.81;;;-0.68;100.00
46430;BME280;32131;53.454;-6.180;2022-12-10T03:06:45;100871.50;;;-0.68;100.00
46430;BME280;32131;53.454;-6.180;2022-12-10T03:09:19;100871.50;;;-0.68;100.00
46430;BME280;32131;53.454;-6.180;2022-12-10T03:11:49;100863.19;;;-0.66;100.00
46430;BME280;32131;53.454;-6.180;2022-12-10T03:14:26;100862.41;;;-0.65;100.00
46430;BME280;32131;53.454;-6.180;2022-12-10T03:16:59;100861.81;;;-0.60;100.00
46430;BME280;32131;53.454;-6.180;2022-12-10T03:19:32;100856.94;;;-0.57;100.00
46430;BME280;32131;53.454;-6.180;2022-12-10T03:22:02;100858.69;;;-0.56;100.00
46430;BME280;32131;53.454;-6.180;2022-12-10T03:24:32;100854.56;;;-0.54;100.00
46430;BME280;32131;53.454;-6.180;2022-12-10T03:27:04;100855.38;;;-0.55;100.00
46430;BME280;32131;53.454;-6.180;2022-12-10T03:29:37;100846.59;;;-0.60;100.00
46430;BME280;32131;53.454;-6.180;2022-12-10T03:32:12;100844.66;;;-0.65;100.00
46430;BME280;32131;53.454;-6.180;2022-12-10T03:34:42;100844.25;;;-0.71;100.00
46430;BME280;32131;53.454;-6.180;2022-12-10T03:37:11;100840.94;;;-0.70;100.00
46430;BME280;32131;53.454;-6.180;2022-12-10T03:39:41;100845.31;;;-0.67;100.00
46430;BME280;32131;53.454;-6.180;2022-12-10T03:42:10;100854.09;;;-0.62;100.00
46430;BME280;32131;53.454;-6.180;2022-12-10T03:44:39;100853.41;;;-0.59;100.00
46430;BME280;32131;53.454;-6.180;2022-12-10T03:47:11;100842.13;;;-0.65;100.00
46430;BME280;32131;53.454;-6.180;2022-12-10T03:49:41;100839.19;;;-0.71;100.00
46430;BME280;32131;53.454;-6.180;2022-12-10T03:52:10;100841.41;;;-0.75;100.00
46430;BME280;32131;53.454;-6.180;2022-12-10T03:54:38;100835.50;;;-0.76;100.00
46430;BME280;32131;53.454;-6.180;2022-12-10T03:57:06;100840.56;;;-0.76;100.00
46430;BME280;32131;53.454;-6.180;2022-12-10T03:59:36;100838.81;;;-0.77;100.00
46430;BME280;32131;53.454;-6.180;2022-12-10T04:02:04;100840.75;;;-0.73;100.00
46430;BME280;32131;53.454;-6.180;2022-12-10T04:04:36;100844.94;;;-0.73;100.00
46430;BME280;32131;53.454;-6.180;2022-12-10T04:07:06;100837.25;;;-0.75;100.00
46430;BME280;32131;53.454;-6.180;2022-12-10T04:09:34;100840.75;;;-0.73;100.00
46430;BME280;32131;53.454;-6.180;2022-12-10T04:12:03;100836.34;;;-0.75;100.00
46430;BME280;32131;53.454;-6.180;2022-12-10T04:14:32;100827.00;;;-0.76;100.00
46430;BME280;32131;53.454;-6.180;2022-12-10T04:17:17;100819.13;;;-0.81;100.00
46430;BME280;32131;53.454;-6.180;2022-12-10T04:19:47;100824.97;;;-0.82;100.00
46430;BME280;32131;53.454;-6.180;2022-12-10T04:22:16;100820.97;;;-0.78;100.00
46430;BME280;32131;53.454;-6.180;2022-12-10T04:25:02;100821.06;;;-0.77;100.00
46430;BME280;32131;53.454;-6.180;2022-12-10T04:27:47;100815.13;;;-0.77;100.00
46430;BME280;32131;53.454;-6.180;2022-12-10T04:30:16;100814.22;;;-0.78;100.00
46430;BME280;32131;53.454;-6.180;2022-12-10T04:32:47;100817.53;;;-0.79;100.00
46430;BME280;32131;53.454;-6.180;2022-12-10T04:35:16;100816.59;;;-0.81;100.00
46430;BME280;32131;53.454;-6.180;2022-12-10T04:37:45;100824.38;;;-0.78;100.00
46430;BME280;32131;53.454;-6.180;2022-12-10T04:40:18;100818.50;;;-0.77;100.00
46430;BME280;32131;53.454;-6.180;2022-12-10T04:42:46;100816.97;;;-0.75;100.00
46430;BME280;32131;53.454;-6.180;2022-12-10T04:45:15;100817.81;;;-0.74;100.00
46430;BME280;32131;53.454;-6.180;2022-12-10T04:47:45;100810.13;;;-0.76;100.00
46430;BME280;32131;53.454;-6.180;2022-12-10T04:50:13;100806.53;;;-0.80;100.00
46430;BME280;32131;53.454;-6.180;2022-12-10T04:52:43;100802.84;;;-0.85;100.00
46430;BME280;32131;53.454;-6.180;2022-12-10T04:55:11;100810.25;;;-0.88;100.00
46430;BME280;32131;53.454;-6.180;2022-12-10T04:57:42;100815.22;;;-0.89;100.00
46430;BME280;32131;53.454;-6.180;2022-12-10T05:00:12;100809.56;;;-0.85;100.00
46430;BME280;32131;53.454;-6.180;2022-12-10T05:02:40;100819.22;;;-0.80;100.00
46430;BME280;32131;53.454;-6.180;2022-12-10T05:05:08;100816.88;;;-0.76;100.00
46430;BME280;32131;53.454;-6.180;2022-12-10T05:07:37;100805.66;;;-0.80;100.00
46430;BME280;32131;53.454;-6.180;2022-12-10T05:10:08;100810.25;;;-0.88;100.00
46430;BME280;32131;53.454;-6.180;2022-12-10T05:12:37;100808.97;;;-0.95;100.00
46430;BME280;32131;53.454;-6.180;2022-12-10T05:15:07;100801.47;;;-1.06;100.00
46430;BME280;32131;53.454;-6.180;2022-12-10T05:17:35;100802.72;;;-1.13;100.00
46430;BME280;32131;53.454;-6.180;2022-12-10T05:20:04;100812.88;;;-1.13;100.00
46430;BME280;32131;53.454;-6.180;2022-12-10T05:22:33;100815.53;;;-1.12;100.00
46430;BME280;32131;53.454;-6.180;2022-12-10T05:25:20;100815.22;;;-1.03;100.00
46430;BME280;32131;53.454;-6.180;2022-12-10T05:27:48;100812.19;;;-0.97;100.00
46430;BME280;32131;53.454;-6.180;2022-12-10T05:30:16;100812.69;;;-0.89;100.00
46430;BME280;32131;53.454;-6.180;2022-12-10T05:32:45;100802.63;;;-0.88;100.00
46430;BME280;32131;53.454;-6.180;2022-12-10T05:35:13;100803.63;;;-0.86;100.00
46430;BME280;32131;53.454;-6.180;2022-12-10T05:37:41;100809.38;;;-0.88;100.00
46430;BME280;32131;53.454;-6.180;2022-12-10T05:40:12;100806.16;;;-0.86;100.00
46430;BME280;32131;53.454;-6.180;2022-12-10T05:42:42;100806.31;;;-0.83;100.00
46430;BME280;32131;53.454;-6.180;2022-12-10T05:45:11;100807.09;;;-0.84;100.00
46430;BME280;32131;53.454;-6.180;2022-12-10T05:47:39;100806.25;;;-0.84;100.00
46430;BME280;32131;53.454;-6.180;2022-12-10T05:50:08;100796.09;;;-0.84;100.00
46430;BME280;32131;53.454;-6.180;2022-12-10T05:52:38;100794.53;;;-0.82;100.00
46430;BME280;32131;53.454;-6.180;2022-12-10T05:55:07;100795.31;;;-0.83;100.00
46430;BME280;32131;53.454;-6.180;2022-12-10T05:57:35;100789.47;;;-0.82;100.00
46430;BME280;32131;53.454;-6.180;2022-12-10T06:00:06;100798.84;;;-0.81;100.00
46430;BME280;32131;53.454;-6.180;2022-12-10T06:02:35;100798.84;;;-0.81;100.00
46430;BME280;32131;53.454;-6.180;2022-12-10T06:05:07;100794.41;;;-0.84;100.00
46430;BME280;32131;53.454;-6.180;2022-12-10T06:07:35;100790.16;;;-0.85;100.00
46430;BME280;32131;53.454;-6.180;2022-12-10T06:10:04;100797.66;;;-0.86;100.00
46430;BME280;32131;53.454;-6.180;2022-12-10T06:12:34;100786.34;;;-0.91;100.00
46430;BME280;32131;53.454;-6.180;2022-12-10T06:15:07;100787.13;;;-0.92;100.00
46430;BME280;32131;53.454;-6.180;2022-12-10T06:17:36;100795.72;;;-0.90;100.00
46430;BME280;32131;53.454;-6.180;2022-12-10T06:20:07;100799.03;;;-0.91;100.00
46430;BME280;32131;53.454;-6.180;2022-12-10T06:22:36;100799.03;;;-0.91;100.00
46430;BME280;32131;53.454;-6.180;2022-12-10T06:25:05;100809.38;;;-0.88;100.00
46430;BME280;32131;53.454;-6.180;2022-12-10T06:27:33;100807.00;;;-0.85;100.00
46430;BME280;32131;53.454;-6.180;2022-12-10T06:30:05;100810.53;;;-0.83;100.00
46430;BME280;32131;53.454;-6.180;2022-12-10T06:32:34;100799.63;;;-0.82;100.00
46430;BME280;32131;53.454;-6.180;2022-12-10T06:35:03;100800.47;;;-0.82;100.00
46430;BME280;32131;53.454;-6.180;2022-12-10T06:37:32;100795.31;;;-0.83;100.00
46430;BME280;32131;53.454;-6.180;2022-12-10T06:40:00;100799.41;;;-0.85;100.00
46430;BME280;32131;53.454;-6.180;2022-12-10T06:42:28;100797.78;;;-0.85;100.00
46430;BME280;32131;53.454;-6.180;2022-12-10T06:44:57;100800.09;;;-0.88;100.00
46430;BME280;32131;53.454;-6.180;2022-12-10T06:47:26;100804.41;;;-0.87;100.00
46430;BME280;32131;53.454;-6.180;2022-12-10T06:49:54;100796.97;;;-0.84;100.00
46430;BME280;32131;53.454;-6.180;2022-12-10T06:52:22;100797.94;;;-0.82;100.00
46430;BME280;32131;53.454;-6.180;2022-12-10T06:54:53;100802.22;;;-0.81;100.00
46430;BME280;32131;53.454;-6.180;2022-12-10T06:57:22;100804.84;;;-0.79;100.00
46430;BME280;32131;53.454;-6.180;2022-12-10T06:59:50;100808.56;;;-0.74;100.00
46430;BME280;32131;53.454;-6.180;2022-12-10T07:02:18;100805.91;;;-0.75;100.00
46430;BME280;32131;53.454;-6.180;2022-12-10T07:04:48;100809.44;;;-0.73;100.00
46430;BME280;32131;53.454;-6.180;2022-12-10T07:07:16;100812.09;;;-0.72;100.00
46430;BME280;32131;53.454;-6.180;2022-12-10T07:09:45;100814.78;;;-0.69;100.00
46430;BME280;32131;53.454;-6.180;2022-12-10T07:12:13;100806.22;;;-0.71;100.00
46430;BME280;32131;53.454;-6.180;2022-12-10T07:14:42;100809.72;;;-0.69;100.00
46430;BME280;32131;53.454;-6.180;2022-12-10T07:17:10;100811.56;;;-0.66;100.00
46430;BME280;32131;53.454;-6.180;2022-12-10T07:19:39;100814.22;;;-0.65;100.00
46430;BME280;32131;53.454;-6.180;2022-12-10T07:22:09;100812.47;;;-0.66;100.00
46430;BME280;32131;53.454;-6.180;2022-12-10T07:24:38;100815.09;;;-0.64;100.00
46430;BME280;32131;53.454;-6.180;2022-12-10T07:27:06;100811.69;;;-0.65;100.00
46430;BME280;32131;53.454;-6.180;2022-12-10T07:29:37;100820.94;;;-0.65;100.00
46430;BME280;32131;53.454;-6.180;2022-12-10T07:32:05;100819.94;;;-0.67;100.00
46430;BME280;32131;53.454;-6.180;2022-12-10T07:34:34;100820.84;;;-0.67;100.00
46430;BME280;32131;53.454;-6.180;2022-12-10T07:37:02;100825.91;;;-0.67;100.00
46430;BME280;32131;53.454;-6.180;2022-12-10T07:39:32;100817.53;;;-0.66;100.00
46430;BME280;32131;53.454;-6.180;2022-12-10T07:42:00;100815.78;;;-0.67;100.00
46430;BME280;32131;53.454;-6.180;2022-12-10T07:44:29;100818.41;;;-0.65;100.00
46430;BME280;32131;53.454;-6.180;2022-12-10T07:46:59;100815.78;;;-0.67;100.00
46430;BME280;32131;53.454;-6.180;2022-12-10T07:49:30;100814.72;;;-0.70;100.00
46430;BME280;32131;53.454;-6.180;2022-12-10T07:51:58;100818.72;;;-0.74;100.00
46430;BME280;32131;53.454;-6.180;2022-12-10T07:54:27;100819.41;;;-0.76;100.00
46430;BME280;32131;53.454;-6.180;2022-12-10T07:56:58;100808.38;;;-0.77;100.00
46430;BME280;32131;53.454;-6.180;2022-12-10T07:59:26;100819.41;;;-0.76;100.00
46430;BME280;32131;53.454;-6.180;2022-12-10T08:01:54;100826.41;;;-0.72;100.00
46430;BME280;32131;53.454;-6.180;2022-12-10T08:04:22;100811.88;;;-0.75;100.00
46430;BME280;32131;53.454;-6.180;2022-12-10T08:06:54;100819.56;;;-0.73;100.00
46430;BME280;32131;53.454;-6.180;2022-12-10T08:09:22;100813.66;;;-0.74;100.00
46430;BME280;32131;53.454;-6.180;2022-12-10T08:11:52;100809.44;;;-0.73;100.00
46430;BME280;32131;53.454;-6.180;2022-12-10T08:14:25;100801.75;;;-0.75;100.00
46430;BME280;32131;53.454;-6.180;2022-12-10T08:16:53;100816.97;;;-0.75;100.00
46430;BME280;32131;53.454;-6.180;2022-12-10T08:19:22;100815.50;;;-0.71;100.00
46430;BME280;32131;53.454;-6.180;2022-12-10T08:21:57;100822.41;;;-0.69;100.00
46430;BME280;32131;53.454;-6.180;2022-12-10T08:24:25;100819.78;;;-0.70;100.00
46430;BME280;32131;53.454;-6.180;2022-12-10T08:26:53;100817.16;;;-0.72;100.00
46430;BME280;32131;53.454;-6.180;2022-12-10T08:29:23;100819.69;;;-0.72;100.00
46430;BME280;32131;53.454;-6.180;2022-12-10T08:31:51;100806.31;;;-0.69;100.00
46430;BME280;32131;53.454;-6.180;2022-12-10T08:34:19;100816.34;;;-0.71;100.00
46430;BME280;32131;53.454;-6.180;2022-12-10T08:36:48;100810.34;;;-0.73;100.00
46430;BME280;32131;53.454;-6.180;2022-12-10T08:39:16;100807.78;;;-0.73;100.00
46430;BME280;32131;53.454;-6.180;2022-12-10T08:41:45;100816.06;;;-0.75;100.00
46430;BME280;32131;53.454;-6.180;2022-12-10T08:44:14;100812.94;;;-0.71;100.00
46430;BME280;32131;53.454;-6.180;2022-12-10T08:46:43;100818.03;;;-0.71;100.00
46430;BME280;32131;53.454;-6.180;2022-12-10T08:49:14;100814.63;;;-0.72;100.00
46430;BME280;32131;53.454;-6.180;2022-12-10T08:51:42;100823.19;;;-0.70;100.00
46430;BME280;32131;53.454;-6.180;2022-12-10T08:54:13;100832.75;;;-0.66;100.00
46430;BME280;32131;53.454;-6.180;2022-12-10T08:56:41;100829.22;;;-0.68;100.00
46430;BME280;32131;53.454;-6.180;2022-12-10T08:59:12;100831.69;;;-0.69;100.00
46430;BME280;32131;53.454;-6.180;2022-12-10T09:01:45;100839.19;;;-0.71;100.00
46430;BME280;32131;53.454;-6.180;2022-12-10T09:04:19;100837.63;;;-0.69;100.00
46430;BME280;32131;53.454;-6.180;2022-12-10T09:06:47;100835.28;;;-0.66;100.00
46430;BME280;32131;53.454;-6.180;2022-12-10T09:09:17;100832.91;;;-0.63;100.00
46430;BME280;32131;53.454;-6.180;2022-12-10T09:11:45;100834.03;;;-0.59;100.00
46430;BME280;32131;53.454;-6.180;2022-12-10T09:14:14;100830.59;;;-0.59;100.00
46430;BME280;32131;53.454;-6.180;2022-12-10T09:16:47;100835.09;;;-0.55;100.00
46430;BME280;32131;53.454;-6.180;2022-12-10T09:19:18;100842.28;;;-0.48;100.00
46430;BME280;32131;53.454;-6.180;2022-12-10T09:21:46;100831.25;;;-0.49;100.00
46430;BME280;32131;53.454;-6.180;2022-12-10T09:24:14;100844.03;;;-0.47;100.00
46430;BME280;32131;53.454;-6.180;2022-12-10T09:26:42;100842.44;;;-0.45;100.00
46430;BME280;32131;53.454;-6.180;2022-12-10T09:29:11;100839.84;;;-0.46;100.00
46430;BME280;32131;53.454;-6.180;2022-12-10T09:31:44;100848.50;;;-0.43;100.00
46430;BME280;32131;53.454;-6.180;2022-12-10T09:34:12;100842.84;;;-0.39;100.00
46430;BME280;32131;53.454;-6.180;2022-12-10T09:36:40;100847.72;;;-0.42;100.00
46430;BME280;32131;53.454;-6.180;2022-12-10T09:39:09;100852.81;;;-0.42;100.00
46430;BME280;32131;53.454;-6.180;2022-12-10T09:41:47;100850.69;;;-0.49;100.00
46430;BME280;32131;53.454;-6.180;2022-12-10T09:44:27;100849.13;;;-0.47;100.00
46430;BME280;32131;53.454;-6.180;2022-12-10T09:47:05;100852.03;;;-0.41;100.00
46430;BME280;32131;53.454;-6.180;2022-12-10T09:49:44;100853.38;;;-0.33;100.00
46430;BME280;32131;53.454;-6.180;2022-12-10T09:52:18;100844.28;;;-0.29;100.00
46430;BME280;32131;53.454;-6.180;2022-12-10T09:54:50;100841.47;;;-0.34;100.00
46430;BME280;32131;53.454;-6.180;2022-12-10T09:57:25;100843.41;;;-0.29;100.00
46430;BME280;32131;53.454;-6.180;2022-12-10T09:59:56;100843.41;;;-0.29;100.00
46430;BME280;32131;53.454;-6.180;2022-12-10T10:02:29;100840.88;;;-0.29;100.00
46430;BME280;32131;53.454;-6.180;2022-12-10T10:05:10;100843.50;;;-0.28;100.00
46430;BME280;32131;53.454;-6.180;2022-12-10T10:07:43;100851.56;;;-0.20;100.00
46430;BME280;32131;53.454;-6.180;2022-12-10T10:10:22;100849.31;;;-0.16;100.00
46430;BME280;32131;53.454;-6.180;2022-12-10T10:12:52;100857.81;;;-0.15;100.00
46430;BME280;32131;53.454;-6.180;2022-12-10T10:15:25;100852.53;;;-0.18;100.00
46430;BME280;32131;53.454;-6.180;2022-12-10T10:18:01;100854.31;;;-0.17;100.00
46430;BME280;32131;53.454;-6.180;2022-12-10T10:20:29;100859.38;;;-0.17;100.00
46430;BME280;32131;53.454;-6.180;2022-12-10T10:22:59;100860.00;;;-0.21;100.00
46430;BME280;32131;53.454;-6.180;2022-12-10T10:25:28;100864.47;;;-0.17;100.00
46430;BME280;32131;53.454;-6.180;2022-12-10T10:27:56;100858.78;;;-0.13;100.00
46430;BME280;32131;53.454;-6.180;2022-12-10T10:30:25;100859.94;;;-0.08;100.00
46430;BME280;32131;53.454;-6.180;2022-12-10T10:33:11;100853.66;;;0.01;100.00
46430;BME280;32131;53.454;-6.180;2022-12-10T10:35:45;100848.78;;;0.04;100.00
46430;BME280;32131;53.454;-6.180;2022-12-10T10:38:21;100850.69;;;0.08;100.00
46430;BME280;32131;53.454;-6.180;2022-12-10T10:40:54;100852.25;;;0.06;100.00
46430;BME280;32131;53.454;-6.180;2022-12-10T10:43:25;100854.81;;;0.06;100.00
46430;BME280;32131;53.454;-6.180;2022-12-10T10:46:06;100849.13;;;0.10;100.00
46430;BME280;32131;53.454;-6.180;2022-12-10T10:48:46;100860.16;;;0.10;100.00
46430;BME280;32131;53.454;-6.180;2022-12-10T10:51:42;100849.69;;;0.19;100.00
46430;BME280;32131;53.454;-6.180;2022-12-10T10:54:31;100854.44;;;0.43;100.00
46430;BME280;32131;53.454;-6.180;2022-12-10T10:57:02;100859.94;;;0.51;100.00
46430;BME280;32131;53.454;-6.180;2022-12-10T10:59:35;100870.47;;;0.42;100.00
46430;BME280;32131;53.454;-6.180;2022-12-10T11:02:17;100876.78;;;0.34;100.00
46430;BME280;32131;53.454;-6.180;2022-12-10T11:04:50;100869.22;;;0.20;100.00
46430;BME280;32131;53.454;-6.180;2022-12-10T11:07:24;100868.94;;;0.15;100.00
46430;BME280;32131;53.454;-6.180;2022-12-10T11:09:54;100872.78;;;0.09;100.00
46430;BME280;32131;53.454;-6.180;2022-12-10T11:12:37;100876.72;;;0.04;100.00
46430;BME280;32131;53.454;-6.180;2022-12-10T11:15:32;100876.88;;;0.07;100.00
46430;BME280;32131;53.454;-6.180;2022-12-10T11:18:01;100877.66;;;0.06;100.00
46430;BME280;32131;53.454;-6.180;2022-12-10T11:20:33;100862.88;;;0.13;100.00
46430;BME280;32131;53.454;-6.180;2022-12-10T11:23:10;100862.38;;;0.19;100.00
46430;BME280;32131;53.454;-6.180;2022-12-10T11:25:52;100864.41;;;0.25;100.00
46430;BME280;32131;53.454;-6.180;2022-12-10T11:28:36;100871.75;;;0.20;100.00
46430;BME280;32131;53.454;-6.180;2022-12-10T11:31:25;100872.91;;;0.25;100.00
46430;BME280;32131;53.454;-6.180;2022-12-10T11:34:13;100877.28;;;0.28;100.00
46430;BME280;32131;53.454;-6.180;2022-12-10T11:37:06;100879.31;;;0.34;100.00
46430;BME280;32131;53.454;-6.180;2022-12-10T11:39:57;100874.78;;;0.43;100.00
46430;BME280;32131;53.454;-6.180;2022-12-10T11:42:45;100880.47;;;0.54;100.00
46430;BME280;32131;53.454;-6.180;2022-12-10T11:45:22;100870.56;;;0.58;100.00
46430;BME280;32131;53.454;-6.180;2022-12-10T11:48:03;100869.00;;;0.60;100.00
46430;BME280;32131;53.454;-6.180;2022-12-10T11:50:41;100863.41;;;0.66;100.00
46430;BME280;32131;53.454;-6.180;2022-12-10T11:56:15;100861.03;;;0.84;100.00
46430;BME280;32131;53.454;-6.180;2022-12-10T11:59:02;100850.06;;;0.85;100.00
46430;BME280;32131;53.454;-6.180;2022-12-10T12:01:43;100854.97;;;0.82;100.00
46430;BME280;32131;53.454;-6.180;2022-12-10T12:04:27;100850.59;;;0.80;100.00
46430;BME280;32131;53.454;-6.180;2022-12-10T12:10:26;100843.41;;;0.87;100.00
46430;BME280;32131;53.454;-6.180;2022-12-10T12:13:23;100845.31;;;0.91;100.00
46430;BME280;32131;53.454;-6.180;2022-12-10T12:15:56;100846.44;;;0.97;100.00
46430;BME280;32131;53.454;-6.180;2022-12-10T12:18:30;100835.66;;;1.01;100.00
46430;BME280;32131;53.454;-6.180;2022-12-10T12:21:07;100835.53;;;1.14;100.00
46430;BME280;32131;53.454;-6.180;2022-12-10T12:23:46;100847.72;;;1.20;100.00
46430;BME280;32131;53.454;-6.180;2022-12-10T12:26:23;100838.28;;;1.17;100.00
46430;BME280;32131;53.454;-6.180;2022-12-10T12:29:00;100842.13;;;1.25;100.00
46430;BME280;32131;53.454;-6.180;2022-12-10T12:31:32;100838.97;;;1.30;100.00
46430;BME280;32131;53.454;-6.180;2022-12-10T12:34:05;100842.81;;;1.23;100.00
46430;BME280;32131;53.454;-6.180;2022-12-10T12:36:40;100841.88;;;1.06;100.00
46430;BME280;32131;53.454;-6.180;2022-12-10T12:39:18;100828.91;;;1.01;100.00
46430;BME280;32131;53.454;-6.180;2022-12-10T12:41:54;100830.59;;;1.01;100.00
46430;BME280;32131;53.454;-6.180;2022-12-10T12:44:39;100839.00;;;1.15;100.00
46430;BME280;32131;53.454;-6.180;2022-12-10T12:47:19;100834.19;;;1.36;100.00
46430;BME280;32131;53.454;-6.180;2022-12-10T12:49:50;100841.53;;;1.46;100.00
46430;BME280;32131;53.454;-6.180;2022-12-10T12:52:26;100840.28;;;1.54;100.00
46430;BME280;32131;53.454;-6.180;2022-12-10T12:55:05;100850.94;;;1.64;100.00
46430;BME280;32131;53.454;-6.180;2022-12-10T12:57:46;100843.66;;;1.70;100.00
46430;BME280;32131;53.454;-6.180;2022-12-10T13:00:19;100844.44;;;1.69;99.62
46430;BME280;32131;53.454;-6.180;2022-12-10T13:03:00;100851.03;;;1.65;99.01